State Park Place, Illinois
Current Conditions -  °F | °C
As of 9:58 AM on Thursday 23 Oct 2014 (Local Time) from KBLV Reporting Station
Clear Clear  
Wind Chill: 50°   Ceiling: Unl
Heat Index: 50°   Visibility: 10mi
Dew Point: 46°   Wind: 5mph
Humidity: 85%   Direction: 190°S
Pressure: 30.23"   Gusts: NA
Location:  38.6902°N, 89.9816°W
Report Text: KBLV 231458Z 19004KT 10SM CLR 10/08 A3023 RMK AO2A SLP242 T01000076 52007
Loading
Personal Weather Stations






























Interactive Weather Map
Tropical Storm Tracking
New forecast layout! Learn more

10-Day Weather Forecast

Advertisements
Track Severe Weather on mobile